Magna, Utah
Current Conditions -  °F | °C
As of 10:53 AM on Thursday 23 Oct 2014 (Local Time) from KSLC Reporting Station
Scattered Clouds Scattered Clouds  
Wind Chill: 60°   Ceiling: Unl
Heat Index: 60°   Visibility: 10mi
Dew Point: 32°   Wind: 3mph
Humidity: 35%   Direction: 90°E
Pressure: 30.13"   Gusts: NA
Location:  40.7°N, 112.09°W
Report Text: KSLC 231653Z 09003KT 10SM SCT160 SCT220 16/00 A3013 RMK AO2 SLP179 ACSL DSNT NE T01560000
Loading
Personal Weather Stations






























Interactive Weather Map
Tropical Storm Tracking
New forecast layout! Learn more

10-Day Weather Forecast

Advertisements
Track Severe Weather on mobile